Orbital elements of SL-14 DEB
| Launched | 17 December 1986 |
| Flight ended | – |
| Launch site | Plesetsk Missile and Space Complex, Russia |
| Owner | Commonwealth of Independent States (former USSR) |
| NORAD ID | 17274 |
| Date fetched |
Epoch osculation |
Inc. [°] |
Ecc. | RA asc node [hr] |
Arg Peri. [°] |
Mean anom [°] |
Mean motion [rev/day] |
Abs. mag |
| Date fetched |
Epoch osculation |
Inc. [°] |
Ecc. | RA asc node [hr] |
Arg Peri. [°] |
Mean anom [°] |
Mean motion [rev/day] |
Abs. mag |
| 2026 May 01 17:56 | 2026 Apr 30 14:53:37 | 82.5260 | 0.00295 | 16.6470 | 16.0452 | 2.2955 | 13.95396 | – |
| 2026 Apr 30 17:56 | 2026 Apr 30 14:53:37 | 82.5260 | 0.00295 | 16.6470 | 16.0452 | 2.2955 | 13.95396 | – |
| 2026 Apr 29 17:57 | 2026 Apr 22 15:52:53 | 82.5251 | 0.00302 | 17.0777 | 38.7460 | 2.2955 | 13.95396 | – |
| 2026 Apr 28 17:56 | 2026 Apr 22 15:52:53 | 82.5251 | 0.00302 | 17.0777 | 38.7460 | 2.2955 | 13.95396 | – |
| 2026 Apr 27 17:58 | 2026 Apr 22 15:52:53 | 82.5251 | 0.00302 | 17.0777 | 38.7460 | 2.2955 | 13.95396 | – |
| 2026 Apr 26 17:58 | 2026 Apr 22 15:52:53 | 82.5251 | 0.00302 | 17.0777 | 38.7460 | 2.2955 | 13.95396 | – |
| 2026 Apr 25 17:58 | 2026 Apr 22 15:52:53 | 82.5251 | 0.00302 | 17.0777 | 38.7460 | 2.2955 | 13.95396 | – |
| 2026 Apr 24 17:59 | 2026 Apr 22 15:52:53 | 82.5251 | 0.00302 | 17.0777 | 38.7460 | 2.2955 | 13.95396 | – |
| 2026 Apr 23 17:57 | 2026 Apr 19 04:19:23 | 82.5248 | 0.00305 | 17.2661 | 48.5129 | 2.2955 | 13.95396 | – |
| 2026 Apr 22 17:57 | 2026 Apr 19 04:19:23 | 82.5248 | 0.00305 | 17.2661 | 48.5129 | 2.2955 | 13.95396 | – |
| 2026 Apr 21 17:57 | 2026 Apr 19 04:19:23 | 82.5248 | 0.00305 | 17.2661 | 48.5129 | 2.2955 | 13.95396 | – |
| 2026 Apr 20 17:57 | 2026 Apr 19 04:19:23 | 82.5248 | 0.00305 | 17.2661 | 48.5129 | 2.2955 | 13.95396 | – |
| 2026 Apr 19 17:58 | 2026 Apr 19 04:19:23 | 82.5248 | 0.00305 | 17.2661 | 48.5129 | 2.2955 | 13.95396 | – |
| 2026 Apr 18 17:56 | 2026 Apr 12 16:39:03 | 82.5240 | 0.00310 | 17.6172 | 66.3944 | 2.2955 | 13.95396 | – |
| 2026 Apr 16 17:57 | 2026 Apr 12 16:39:03 | 82.5240 | 0.00310 | 17.6172 | 66.3944 | 2.2955 | 13.95396 | – |
| 2026 Apr 14 17:57 | 2026 Apr 12 16:39:03 | 82.5240 | 0.00310 | 17.6172 | 66.3944 | 2.2955 | 13.95396 | – |
| 2026 Apr 13 17:57 | 2026 Apr 12 16:39:03 | 82.5240 | 0.00310 | 17.6172 | 66.3944 | 2.2955 | 13.95396 | – |
| 2026 Apr 12 17:57 | 2026 Apr 08 05:00:15 | 82.5234 | 0.00312 | 17.8599 | 78.5907 | 2.2955 | 13.95396 | – |
| 2026 Apr 11 17:57 | 2026 Apr 08 05:00:15 | 82.5234 | 0.00312 | 17.8599 | 78.5907 | 2.2955 | 13.95396 | – |
| 2026 Apr 10 17:58 | 2026 Apr 08 05:00:15 | 82.5234 | 0.00312 | 17.8599 | 78.5907 | 2.2955 | 13.95396 | – |
| 2026 Apr 09 18:01 | 2026 Apr 08 05:00:15 | 82.5234 | 0.00312 | 17.8599 | 78.5907 | 2.2955 | 13.95396 | – |
| 2026 Apr 08 17:57 | 2026 Apr 08 05:00:15 | 82.5234 | 0.00312 | 17.8599 | 78.5907 | 2.2955 | 13.95396 | – |
| 2026 Apr 07 17:57 | 2026 Apr 02 06:10:49 | 82.5229 | 0.00313 | 18.1821 | 94.7552 | 2.2955 | 13.95396 | – |
| 2026 Apr 06 17:57 | 2026 Apr 02 06:10:49 | 82.5229 | 0.00313 | 18.1821 | 94.7552 | 2.2955 | 13.95396 | – |
| 2026 Apr 05 17:56 | 2026 Apr 02 06:10:49 | 82.5229 | 0.00313 | 18.1821 | 94.7552 | 2.2955 | 13.95396 | – |
| 2026 Apr 04 17:57 | 2026 Apr 02 06:10:49 | 82.5229 | 0.00313 | 18.1821 | 94.7552 | 2.2955 | 13.95396 | – |